Bartlett — CGDR — position and weather

sailwx.info

Track history (hours):
 
Tides and Currents Weather Stations Pressure Air Temp Water Temp Dewpoint Dewpoint Depression Visibility Wind Speed Wind Dir Waves Ship Positions

Bartlett

Last reported at 2017-Dec-11 01:58 UTC. Time now 2017-Dec-11 02:13 UTC.
Position N 54°20' W 130°17'.

Length 57 m; beam 13.07 m; draft 3.8 m.

Type: SAR. MMSI: 316182000.

Date/timePositionNaut miles runAvg speedWind from/ knotsBaromVisibWave heightAir tempDewpointWater temp
2017-Dec-11 01:58N 54°20' W 130°17'0 0.0
2017-Dec-11 01:28N 54°20' W 130°17'2 4.3
2017-Dec-11 01:00N 54°18' W 130°18'261.7 150 / 91020.2 13.1 7.5
2017-Dec-11 00:58N 54°20' W 130°17'0 0.0
2017-Dec-11 00:28N 54°20' W 130°17'0 0.7
2017-Dec-11 00:01N 54°20' W 130°17'2136.0
2017-Dec-11 00:00N 54°18' W 130°18'2 3.5 120 / 91020.4 14.7 7.0
2017-Dec-10 23:30N 54°18' W 130°21'5 9.7
2017-Dec-10 23:01N 54°14' W 130°21'2144.5
2017-Dec-10 23:00N 54°12' W 130°18'4 9.2 110 / 181021.7 10.6 6.1
2017-Dec-10 22:31N 54°08' W 130°19'612.7
2017-Dec-10 22:00N 54°02' W 130°14'2135.0
2017-Dec-10 22:00N 54°00' W 130°12'4 9.0 140 / 181023.4 11.7 7.1
2017-Dec-10 21:30N 53°56' W 130°14'612.0
2017-Dec-10 21:00N 53°51' W 130°19'3314.9
2017-Dec-10 21:00N 53°48' W 130°18'9 9.3 130 / 151025.3 14.6 7.2
2017-Dec-10 20:00N 53°42' W 130°30'3 9.7 120 / 151023.7 10.4 7.2
2017-Dec-10 19:43N 53°40' W 130°33'211.8
2017-Dec-10 19:30N 53°38' W 130°36'917.5
2017-Dec-10 19:00N 53°30' W 130°42'2 4.6 130 / 201025.0 12.0 7.1
2017-Dec-10 18:39N 53°30' W 130°39'0 0.8
2017-Dec-10 18:22N 53°30' W 130°39'617.0
2017-Dec-10 18:00N 53°36' W 130°42'310.3 090 / 81024.1 9.2 6.7
2017-Dec-10 17:44N 53°36' W 130°38'311.2
2017-Dec-10 17:30N 53°38' W 130°35'4 7.4
2017-Dec-10 17:00N 53°36' W 130°30'0 0.0 100 / 111024.0 8.7 7.3
2017-Dec-10 16:00N 53°36' W 130°30'0 0.0 110 / 111024.4 9.4 7.1
2017-Dec-10 15:00N 53°36' W 130°30'0 0.0 120 / 191023.5 9.3 7.3
2017-Dec-10 14:00N 53°36' W 130°30'0 0.0 110 / 111024.8 8.8 8.2
2017-Dec-10 13:00N 53°36' W 130°30'0 0.0 130 / 131025.3 9.1 8.7
2017-Dec-10 12:00N 53°36' W 130°30'0 0.0 140 / 141026.0 9.0 8.7
2017-Dec-10 11:00N 53°36' W 130°30'0 0.0 150 / 141025.6 9.0 8.7
2017-Dec-10 10:00N 53°36' W 130°30'0 0.0 150 / 151024.1 9.1 8.6
2017-Dec-10 09:00N 53°36' W 130°30'0 0.0 150 / 141023.6 9.2 8.7
2017-Dec-10 08:00N 53°36' W 130°30'0 0.0 120 / 141022.0 8.3 8.2
2017-Dec-10 07:00N 53°36' W 130°30'0 0.0 120 / 111021.8 8.8 8.2
2017-Dec-10 06:00N 53°36' W 130°30'0 0.0 140 / 141020.7 9.1 8.4
2017-Dec-10 05:00N 53°36' W 130°30'0 0.0 140 / 151019.4 8.4 7.9
2017-Dec-10 04:00N 53°36' W 130°30'0 0.0 140 / 131018.3 8.6 7.7
2017-Dec-10 03:00N 53°36' W 130°30'0 0.0 120 / 141018.3 8.7 7.6
2017-Dec-10 01:00N 53°36' W 130°30'0 0.0 140 / 211017.0 9.0 7.5
2017-Dec-10 00:00N 53°36' W 130°30'0 0.0 140 / 241016.5 9.0 7.7
2017-Dec-09 23:00N 53°36' W 130°30'0 0.0 150 / 241016.3 9.1 7.3
2017-Dec-09 22:00N 53°36' W 130°30'0 0.0 140 / 261016.0 8.9 7.4
2017-Dec-09 21:00N 53°36' W 130°30'0 0.0 140 / 241017.1 8.6 7.3
2017-Dec-09 20:00N 53°36' W 130°30'0 0.0 140 / 281016.9 8.6 7.0
2017-Dec-09 19:00N 53°36' W 130°30'0 0.0 140 / 311017.1 9.3 5.9
2017-Dec-09 18:00N 53°36' W 130°30'0 0.0 150 / 271015.8 10.0 5.5
2017-Dec-09 17:00N 53°36' W 130°30'0 0.0 130 / 241015.6 11.1 5.2
2017-Dec-09 16:00N 53°36' W 130°30'311.0 140 / 261014.9 14.1 3.0
2017-Dec-09 15:43N 53°39' W 130°31'5 7.1
2017-Dec-09 15:00N 53°36' W 130°24'0 0.0 100 / 211015.4 11.7 4.8
2017-Dec-09 14:00N 53°36' W 130°24'4 3.6 130 / 261016.8 12.2 3.4
2017-Dec-09 13:00N 53°36' W 130°18'9 9.3 130 / 121018.5 9.8 6.3
2017-Dec-09 12:00N 53°30' W 130°06'7 7.1 140 / 81020.3 8.7 6.2
2017-Dec-09 11:00N 53°30' W 129°54'6 6.0 160 / 121021.3 8.8 5.0
2017-Dec-09 10:00N 53°24' W 129°54'9 9.3 150 / 151021.4 11.9 3.7
2017-Dec-09 09:00N 53°18' W 129°42'7 7.0 140 / 161021.3 11.3 2.1
2017-Dec-09 08:00N 53°12' W 129°36'7 7.0 130 / 71021.4 11.5 1.8
2017-Dec-09 07:00N 53°06' W 129°30'6 6.0 140 / 211020.9 14.5 0.8
2017-Dec-09 06:00N 53°00' W 129°30'7 7.0 140 / 181021.9 12.7 2.5
2017-Dec-09 05:00N 52°54' W 129°24'9 9.4 140 / 171022.4 11.6 3.5
2017-Dec-09 04:00N 52°48' W 129°12'7 7.0 160 / 131023.1 12.2 2.7
2017-Dec-09 03:00N 52°42' W 129°06'7 7.3 140 / 131023.6 11.2 2.5
2017-Dec-09 02:00N 52°42' W 128°54'4 8.3 120 / 101023.2 12.6 0.5
2017-Dec-09 01:33N 52°38' W 128°54'1 7.1
2017-Dec-09 01:28N 52°38' W 128°54'2 4.2
2017-Dec-09 01:00N 52°36' W 128°54'512.0 080 / 61023.1 9.4 2.9
2017-Dec-09 00:36N 52°32' W 128°51'312.4
2017-Dec-09 00:23N 52°29' W 128°51'512.1
2017-Dec-09 00:00N 52°24' W 128°51'2103.3
2017-Dec-09 00:00N 52°24' W 128°48'611.6 110 / 101023.7 8.5 3.4
2017-Dec-08 23:30N 52°18' W 128°49'815.0
2017-Dec-08 23:00N 52°12' W 128°42'2116.2 080 / 111024.7 8.3 4.8
2017-Dec-08 22:58N 52°14' W 128°41'612.7
2017-Dec-08 22:30N 52°15' W 128°32'5 9.2
2017-Dec-08 22:00N 52°16' W 128°24'2679.2
2017-Dec-08 22:00N 52°18' W 128°24'9 9.5 110 / 61025.6 8.9 2.7
2017-Dec-08 21:00N 52°12' W 128°12'319.6 090 / 71026.2 7.5 2.0
2017-Dec-08 20:49N 52°12' W 128°07'3 7.5
2017-Dec-08 20:24N 52°09' W 128°08'3 9.0
2017-Dec-08 20:00N 52°06' W 128°07'156.1
2017-Dec-08 20:00N 52°06' W 128°06'7 8.6 060 / 31026.7 9.8 2.8
2017-Dec-08 19:14N 52°04' W 127°56'311.6
2017-Dec-08 19:00N 52°01' W 127°55'2102.9
2017-Dec-08 19:00N 52°00' W 127°54'510.1 110 / 21027.6 5.7 1.8
2017-Dec-08 18:30N 51°55' W 127°56'612.1
2017-Dec-08 18:00N 51°49' W 127°56'2121.2
2017-Dec-08 18:00N 51°48' W 127°54'510.5 190 / 11027.2 5.4 2.3
2017-Dec-08 17:30N 51°43' W 127°55'612.6
2017-Dec-08 17:00N 51°37' W 127°53'162.4
2017-Dec-08 17:00N 51°36' W 127°54'510.8 020 / 21026.9 4.7 3.5
2017-Dec-08 16:30N 51°31' W 127°51'612.1
2017-Dec-08 16:00N 51°25' W 127°47'2102.8
2017-Dec-08 16:00N 51°24' W 127°48'2 3.0 080 / 161026.9 7.1 4.0
2017-Dec-08 15:21N 51°22' W 127°46'2 5.6
2017-Dec-08 15:00N 51°24' W 127°48'241.2 1027.1 6.2 2.9
2017-Dec-08 14:57N 51°22' W 127°46'0 0.0
2017-Dec-08 14:27N 51°22' W 127°46'2 4.3
2017-Dec-08 14:00N 51°24' W 127°48'240.7 200 / 11027.8 5.3 3.0
2017-Dec-08 13:57N 51°22' W 127°46'0 0.1
2017-Dec-08 13:27N 51°22' W 127°46'2 4.3
2017-Dec-08 13:00N 51°24' W 127°48'0 0.0 220 / 11027.7 4.4 3.0
2017-Dec-08 12:00N 51°24' W 127°48'2 4.4 190 / 11027.9 4.8 2.6
2017-Dec-08 11:33N 51°22' W 127°46'0 0.0
2017-Dec-08 11:27N 51°22' W 127°46'2 4.3
2017-Dec-08 11:00N 51°24' W 127°48'241.3 110 / 11028.1 5.3 2.8
2017-Dec-08 10:57N 51°22' W 127°46'0 0.0
2017-Dec-08 10:27N 51°22' W 127°46'0 0.0
2017-Dec-08 10:00N 51°22' W 127°46'2699.1
2017-Dec-08 10:00N 51°24' W 127°48'2 3.9 050 / 11028.3 5.0 2.4
2017-Dec-08 09:30N 51°22' W 127°46'2 3.9
2017-Dec-08 09:00N 51°24' W 127°48'2 7.9 140 / 11028.7 4.5 2.7
2017-Dec-08 08:45N 51°22' W 127°46'0 0.0
2017-Dec-08 08:21N 51°22' W 127°46'2 5.6
2017-Dec-08 08:00N 51°24' W 127°48'241.5 060 / 21028.2 6.6 3.1
2017-Dec-08 07:57N 51°22' W 127°46'0 0.0
2017-Dec-08 07:27N 51°22' W 127°46'2 4.4
2017-Dec-08 07:00N 51°24' W 127°48'241.3 160 / 21028.6 5.0 3.1
2017-Dec-08 06:57N 51°22' W 127°46'0 0.0
2017-Dec-08 06:21N 51°22' W 127°46'2 5.5
2017-Dec-08 06:00N 51°24' W 127°48'241.1 200 / 21027.9 5.9 3.6
2017-Dec-08 05:57N 51°22' W 127°46'0 0.1
2017-Dec-08 05:27N 51°22' W 127°46'2 4.3
2017-Dec-08 05:00N 51°24' W 127°48'240.8 150 / 11028.1 5.5 3.7
2017-Dec-08 04:57N 51°22' W 127°46'0 0.1
2017-Dec-08 04:27N 51°22' W 127°46'2 4.3
2017-Dec-08 04:00N 51°24' W 127°48'241.0 070 / 31027.5 7.8 3.8
2017-Dec-08 03:57N 51°22' W 127°46'0 0.1
2017-Dec-08 03:27N 51°22' W 127°46'2 4.3
2017-Dec-08 03:00N 51°24' W 127°48'240.7 030 / 11027.9 7.2 3.7
2017-Dec-08 02:57N 51°22' W 127°46'0 0.0
2017-Dec-08 02:30N 51°22' W 127°46'2 3.9
2017-Dec-08 02:00N 51°24' W 127°48'241.2 050 / 91028.1 9.0 4.1
2017-Dec-08 01:57N 51°22' W 127°46'2 3.6
2017-Dec-08 01:31N 51°24' W 127°48'4 7.3
2017-Dec-08 01:00N 51°21' W 127°52'31402.2
2017-Dec-08 01:00N 51°18' W 127°54'3 6.5 060 / 61028.0 8.5 4.7
2017-Dec-08 00:30N 51°15' W 127°52'612.4
2017-Dec-08 00:00N 51°10' W 127°58'3466.3
2017-Dec-08 00:00N 51°12' W 127°54'919.0 140 / 161027.7 10.1 6.0
2017-Dec-07 23:30N 51°05' W 128°03'1223.7
2017-Dec-07 23:00N 50°54' W 128°12'3 8.2 120 / 201026.8 12.6 4.3
2017-Dec-07 22:39N 50°56' W 128°14'213.0
2017-Dec-07 22:30N 50°55' W 128°16'713.4
2017-Dec-07 22:00N 50°50' W 128°22'2129.9
2017-Dec-07 22:00N 50°48' W 128°24'0 0.0 100 / 41027.3 12.0 6.3
2017-Dec-07 21:00N 50°48' W 128°24'1130.2 120 / 61027.8 11.6 4.3
2017-Dec-07 20:59N 50°47' W 128°25'2 4.7
2017-Dec-07 20:30N 50°46' W 128°28'5 9.0
2017-Dec-07 20:00N 50°42' W 128°24'1414.2 110 / 121028.5 9.8 4.6
2017-Dec-07 19:00N 50°30' W 128°12'10 9.7 100 / 51029.3 9.3 4.9
2017-Dec-07 18:00N 50°24' W 128°00'0 0.0 060 / 121030.0 6.8 3.6
2017-Dec-07 17:00N 50°24' W 128°00'0 0.0 020 / 91029.6 6.1 2.5
2017-Dec-07 16:00N 50°24' W 128°00'0 0.0 010 / 81029.6 5.9 2.9
2017-Dec-07 15:00N 50°24' W 128°00'0 0.0 010 / 91029.7 6.3 3.1
2017-Dec-07 14:00N 50°24' W 128°00'0 0.0 040 / 61030.3 7.0 3.3
2017-Dec-07 13:00N 50°24' W 128°00'0 0.0 040 / 81030.6 6.8 3.3
2017-Dec-07 12:00N 50°24' W 128°00'0 0.0 010 / 71031.1 6.9 3.4
2017-Dec-07 11:00N 50°24' W 128°00'0 0.0 010 / 91031.5 6.4 3.6
2017-Dec-07 10:00N 50°24' W 128°00'0 0.0 030 / 61031.7 7.1 3.7
2017-Dec-07 09:00N 50°24' W 128°00'0 0.0 050 / 131031.7 7.4 4.0
2017-Dec-07 08:00N 50°24' W 128°00'0 0.0 020 / 101031.8 6.9 4.0
2017-Dec-07 07:00N 50°24' W 128°00'0 0.0 010 / 81032.8 6.8 4.4
2017-Dec-07 06:00N 50°24' W 128°00'1212.0 030 / 131032.7 7.9 6.1
2017-Dec-07 05:00N 50°12' W 128°00'1312.6 070 / 51032.9 8.6 7.2
2017-Dec-07 04:00N 50°00' W 127°54'1313.0 080 / 111033.4 8.4 7.8
2017-Dec-07 03:00N 49°54' W 127°36'1313.1 070 / 61033.6 8.5 7.4
2017-Dec-07 02:00N 49°48' W 127°18'914.5 090 / 41033.7 8.9 6.4
2017-Dec-07 01:22N 49°41' W 127°10'512.8
2017-Dec-07 01:00N 49°38' W 127°04'2142.0
2017-Dec-07 01:00N 49°36' W 127°06'713.9 050 / 51033.9 8.4 6.9
2017-Dec-07 00:30N 49°34' W 126°56'612.4
2017-Dec-07 00:00N 49°31' W 126°47'195.8
2017-Dec-07 00:00N 49°30' W 126°48'4 7.9 170 / 51034.1 9.7 7.3
2017-Dec-06 23:31N 49°31' W 126°42'3 6.7
2017-Dec-06 23:00N 49°28' W 126°39'3173.4
2017-Dec-06 23:00N 49°30' W 126°42'816.2 150 / 61034.0 10.2 7.2
2017-Dec-06 22:30N 49°23' W 126°37'3 6.4
2017-Dec-06 22:00N 49°22' W 126°33'39627.5
2017-Dec-06 22:00N 49°24' W 126°30'3 5.3 080 / 21034.5 9.7 6.3
2017-Dec-06 21:30N 49°22' W 126°33'0 0.0
2017-Dec-06 21:00N 49°22' W 126°33'33209.2
2017-Dec-06 21:00N 49°24' W 126°30'0 0.0 080 / 11035.2 10.7 6.4
2017-Dec-06 20:00N 49°24' W 126°30'0 0.0 070 / 11035.5 9.4 5.8
2017-Dec-06 19:00N 49°24' W 126°30'0 0.0 080 / 31035.9 9.3 5.8
2017-Dec-06 18:00N 49°24' W 126°30'1414.3 080 / 51035.9 7.9 5.9
2017-Dec-06 17:00N 49°12' W 126°18'1313.2 080 / 61035.7 7.8 6.0
2017-Dec-06 16:00N 49°06' W 126°00'4 1.0 060 / 61035.5 6.7 6.0
2017-Dec-06 12:00N 49°06' W 125°54'0 0.0 040 / 31036.3 5.2 4.9
2017-Dec-06 08:00N 49°06' W 125°54'0 0.0 060 / 11036.8 5.2 4.6
2017-Dec-06 07:00N 49°06' W 125°54'0 0.0 080 / 11036.9 5.5 4.6
2017-Dec-06 06:00N 49°06' W 125°54'0 0.0 040 / 11037.0 6.4 5.2
2017-Dec-06 05:00N 49°06' W 125°54'0 0.0 010 / 31037.0 5.8 5.3
2017-Dec-06 04:00N 49°06' W 125°54'0 0.0 100 / 31037.2 6.3 5.1
2017-Dec-06 03:00N 49°06' W 125°54'6 6.0 100 / 41036.7 6.2 5.2
2017-Dec-06 02:00N 49°00' W 125°54'1313.3 120 / 51036.9 7.3 5.2
2017-Dec-06 01:00N 48°54' W 125°36'10 9.9 090 / 71036.7 6.7 4.3
2017-Dec-06 00:00N 48°48' W 125°24'1313.3 120 / 61036.7 8.0 4.5
2017-Dec-05 23:00N 48°42' W 125°06'0 0.0 130 / 31036.9 7.8 3.8
2017-Dec-05 22:00N 48°42' W 125°06'0 0.0 180 / 21037.2 9.2 4.2
2017-Dec-05 21:00N 48°42' W 125°06'10 9.9 230 / 21037.5 8.3 3.4
2017-Dec-05 20:00N 48°48' W 125°18'4 4.0 040 / 111037.9 7.2 3.3
2017-Dec-05 19:00N 48°48' W 125°12'0 0.0 040 / 91038.1 5.6 3.1
2017-Dec-05 18:00N 48°48' W 125°12'0 0.0 060 / 71038.1 5.6 3.1
2017-Dec-05 17:00N 48°48' W 125°12'0 0.0 050 / 81037.7 4.3 2.2
2017-Dec-05 16:00N 48°48' W 125°12'0 0.0 040 / 91037.4 3.7 1.9
2017-Dec-05 15:00N 48°48' W 125°12'6 6.0 050 / 101037.4 3.8 2.1
2017-Dec-05 14:00N 48°42' W 125°12'8 7.9 050 / 61037.1 5.6 4.2
2017-Dec-05 13:00N 48°42' W 125°00'7 7.2 070 / 131037.2 5.0 3.1
2017-Dec-05 12:00N 48°36' W 124°54'8 7.9 040 / 101037.2 4.4 3.3
2017-Dec-05 11:00N 48°36' W 124°42'7 7.2 060 / 101037.4 5.1 2.9
2017-Dec-05 10:00N 48°30' W 124°36'8 8.0 060 / 161037.3 3.8 2.5
2017-Dec-05 09:00N 48°30' W 124°24'1010.0 060 / 71036.9 6.0 3.7
2017-Dec-05 08:00N 48°24' W 124°12'4 4.0 080 / 61036.9 6.0 3.5
2017-Dec-05 07:00N 48°24' W 124°06'1010.0 050 / 51036.8 6.0 3.3
2017-Dec-05 06:00N 48°18' W 123°54'8 8.0 030 / 71036.9 4.8 2.7
2017-Dec-05 05:00N 48°18' W 123°42'8 8.0 040 / 81036.7 5.5 3.0
2017-Dec-05 04:00N 48°18' W 123°30'7 7.2 010 / 101036.3 5.9 4.0
2017-Dec-05 03:00N 48°24' W 123°24'0 0.0 350 / 61036.2 5.1 3.2
2017-Dec-05 00:00N 48°24' W 123°24'0 0.0 040 / 11036.2 6.1 2.2
2017-Dec-04 18:00N 48°24' W 123°24'0 0.0 360 / 21036.5 3.3 1.5
2017-Dec-04 12:00N 48°24' W 123°24'1 0.9 020 / 51034.0 1.2 0.4
2017-Dec-04 10:25N 48°25' W 123°23'0 0.0
2017-Dec-04 09:58N 48°25' W 123°23'0 0.0
2017-Dec-04 09:28N 48°25' W 123°23'0 0.0
2017-Dec-04 08:58N 48°25' W 123°23'0 0.0
2017-Dec-04 08:28N 48°25' W 123°23'0 0.0
2017-Dec-04 07:58N 48°25' W 123°23'0 0.0
2017-Dec-04 07:28N 48°25' W 123°23'0 0.0
2017-Dec-04 06:58N 48°25' W 123°23'0 0.0
2017-Dec-04 06:28N 48°25' W 123°23'1 2.9
2017-Dec-04 06:00N 48°24' W 123°24'149.1 020 / 31030.5 3.6 2.8
2017-Dec-04 05:58N 48°25' W 123°23'0 0.0
2017-Dec-04 05:28N 48°25' W 123°23'0 0.0
2017-Dec-04 04:58N 48°25' W 123°23'0 0.0
2017-Dec-04 04:28N 48°25' W 123°23'0 0.0
2017-Dec-04 03:55N 48°25' W 123°23'0 0.0
2017-Dec-04 03:30N 48°25' W 123°23'3 6.3
2017-Dec-04 03:00N 48°23' W 123°20'296.6
2017-Dec-04 03:00N 48°24' W 123°18'5 9.4 100 / 51027.6 6.5 2.3
2017-Dec-04 02:30N 48°26' W 123°12'714.8
2017-Dec-04 02:01N 48°34' W 123°13'3157.4
2017-Dec-04 02:00N 48°36' W 123°12'510.8 060 / 71026.8 6.0 2.0
2017-Dec-04 01:30N 48°41' W 123°16'713.2
2017-Dec-04 01:00N 48°46' W 123°20'510.3
2017-Dec-04 00:30N 48°52' W 123°19'713.2
2017-Dec-04 00:00N 48°58' W 123°19'4316.4
2017-Dec-04 00:00N 48°54' W 123°18'1122.1 300 / 141025.0 6.1 1.4
2017-Dec-03 23:30N 49°05' W 123°20'611.6
2017-Dec-03 23:00N 49°08' W 123°12'2107.6
2017-Dec-03 23:00N 49°06' W 123°12'510.2 290 / 91024.1 5.6 0.7
2017-Dec-03 22:30N 49°07' W 123°05'0 0.1
2017-Dec-03 22:00N 49°07' W 123°05'294.7
2017-Dec-03 22:00N 49°06' W 123°06'2 4.0 280 / 41023.5 6.2 2.0
2017-Dec-03 21:29N 49°07' W 123°09'5 9.9
2017-Dec-03 21:00N 49°07' W 123°16'2229.0
2017-Dec-03 21:00N 49°06' W 123°18'3 6.9 310 / 131022.3 5.2 0.9
2017-Dec-03 20:30N 49°03' W 123°18'611.4
2017-Dec-03 20:00N 48°57' W 123°17'3311.3
2017-Dec-03 20:00N 48°54' W 123°18'3 5.2 300 / 191022.4 5.5 1.2
2017-Dec-03 19:31N 48°52' W 123°19'4 8.8
2017-Dec-03 19:00N 48°47' W 123°20'2115.5
2017-Dec-03 19:00N 48°48' W 123°18'611.9 330 / 121021.8 5.9 1.5
2017-Dec-03 18:30N 48°42' W 123°16'611.8
2017-Dec-03 18:00N 48°37' W 123°13'177.5
2017-Dec-03 18:00N 48°36' W 123°12'510.0 320 / 121020.6 5.9 1.6
2017-Dec-03 17:31N 48°31' W 123°11'510.9
2017-Dec-03 17:00N 48°26' W 123°10'2127.3
2017-Dec-03 17:00N 48°24' W 123°12'3 6.5 340 / 171019.4 5.6 1.8
2017-Dec-03 16:30N 48°23' W 123°16'5 9.2
2017-Dec-03 16:00N 48°23' W 123°23'155.8
2017-Dec-03 16:00N 48°24' W 123°24'1 2.6 020 / 91019.0 4.1 1.5
2017-Dec-03 15:28N 48°25' W 123°23'1 2.8
2017-Dec-03 15:00N 48°24' W 123°24'151.3 360 / 51018.2 5.0 1.2
2017-Dec-03 14:58N 48°25' W 123°23'0 0.0
2017-Dec-03 14:28N 48°25' W 123°23'1 2.8
2017-Dec-03 14:00N 48°24' W 123°24'151.5 020 / 61017.4 4.7 1.8
2017-Dec-03 13:58N 48°25' W 123°23'0 0.0
2017-Dec-03 13:28N 48°25' W 123°23'1 2.8
2017-Dec-03 13:00N 48°24' W 123°24'151.5 010 / 51016.6 4.4 2.7
2017-Dec-03 12:58N 48°25' W 123°23'0 0.0
2017-Dec-03 12:28N 48°25' W 123°23'1 2.9
2017-Dec-03 12:00N 48°24' W 123°24'151.3 020 / 61015.7 5.2 3.5
2017-Dec-03 11:58N 48°25' W 123°23'0 0.0
2017-Dec-03 11:28N 48°25' W 123°23'1 2.9
2017-Dec-03 11:00N 48°24' W 123°24'152.0 020 / 41015.0 5.8 3.5
2017-Dec-03 10:58N 48°25' W 123°23'0 0.0
2017-Dec-03 10:28N 48°25' W 123°23'1 2.9
2017-Dec-03 10:00N 48°24' W 123°24'151.5 310 / 41014.2 5.5 3.6
2017-Dec-03 09:58N 48°25' W 123°23'0 0.0
2017-Dec-03 09:28N 48°25' W 123°23'1 2.9
2017-Dec-03 09:00N 48°24' W 123°24'151.0 010 / 61013.5 5.8 3.0
2017-Dec-03 08:58N 48°25' W 123°23'0 0.0
2017-Dec-03 08:28N 48°25' W 123°23'1 2.8
2017-Dec-03 08:00N 48°24' W 123°24'151.1 360 / 81013.0 6.0 3.6
2017-Dec-03 07:58N 48°25' W 123°23'0 0.0
2017-Dec-03 07:28N 48°25' W 123°23'1 2.9
2017-Dec-03 07:00N 48°24' W 123°24'151.5 350 / 71012.7 6.0 4.0
2017-Dec-03 06:58N 48°25' W 123°23'0 0.0
2017-Dec-03 06:28N 48°25' W 123°23'1 2.9
2017-Dec-03 06:00N 48°24' W 123°24'152.0 350 / 101012.2 6.0 4.3
2017-Dec-03 05:58N 48°25' W 123°23'0 0.0
2017-Dec-03 05:28N 48°25' W 123°23'1 2.9
2017-Dec-03 05:00N 48°24' W 123°24'151.1 350 / 101011.5 6.3 4.4
2017-Dec-03 04:58N 48°25' W 123°23'0 0.0
2017-Dec-03 04:28N 48°25' W 123°23'1 2.8
2017-Dec-03 04:00N 48°24' W 123°24'150.7 350 / 61011.1 6.7 5.3
2017-Dec-03 03:58N 48°25' W 123°23'0 0.0
2017-Dec-03 03:28N 48°25' W 123°23'1 2.9
2017-Dec-03 03:00N 48°24' W 123°24'151.5 330 / 21010.7 6.8 5.8
2017-Dec-03 02:58N 48°25' W 123°23'0 0.0
2017-Dec-03 02:28N 48°25' W 123°23'1 2.9
2017-Dec-03 02:00N 48°24' W 123°24'151.6 300 / 31010.4 6.9 5.6
2017-Dec-03 01:58N 48°25' W 123°23'0 0.0
2017-Dec-03 01:28N 48°25' W 123°23'1 2.8
2017-Dec-03 01:00N 48°24' W 123°24'151.5 340 / 21010.0 7.6 5.8
2017-Dec-03 00:58N 48°25' W 123°23'0 0.0
2017-Dec-03 00:28N 48°25' W 123°23'1 2.8
2017-Dec-03 00:00N 48°24' W 123°24'151.1 100 / 11009.9 7.8 5.0
2017-Dec-02 23:58N 48°25' W 123°23'0 0.0
2017-Dec-02 23:28N 48°25' W 123°23'1 2.9
2017-Dec-02 23:00N 48°24' W 123°24'151.1 100 / 11009.6 7.7 5.0
2017-Dec-02 22:58N 48°25' W 123°23'0 0.0
2017-Dec-02 22:28N 48°25' W 123°23'0 0.0
2017-Dec-02 21:58N 48°25' W 123°23'0 0.0
2017-Dec-02 21:28N 48°25' W 123°23'1 2.8
2017-Dec-02 21:00N 48°24' W 123°24'151.1 040 / 11010.3 8.2 6.1
2017-Dec-02 20:58N 48°25' W 123°23'0 0.0
2017-Dec-02 20:28N 48°25' W 123°23'1 2.9
2017-Dec-02 20:00N 48°24' W 123°24'151.5 340 / 11010.6 7.7 6.5
2017-Dec-02 19:58N 48°25' W 123°23'0 0.0
2017-Dec-02 19:28N 48°25' W 123°23'1 2.9
2017-Dec-02 19:00N 48°24' W 123°24'152.0 340 / 41010.9 7.4 6.5
2017-Dec-02 18:58N 48°25' W 123°23'0 0.0
2017-Dec-02 18:28N 48°25' W 123°23'0 0.0
2017-Dec-02 18:01N 48°25' W 123°23'175.6
2017-Dec-02 18:00N 48°24' W 123°24'1 2.8 140 / 21011.4 7.7 6.2
2017-Dec-02 17:30N 48°25' W 123°23'0 0.0
2017-Dec-02 17:00N 48°25' W 123°23'1261.3
2017-Dec-02 17:00N 48°24' W 123°24'1 2.8 130 / 31012.0 7.3 6.0
2017-Dec-02 16:30N 48°25' W 123°23'1 2.7
2017-Dec-02 16:00N 48°24' W 123°24'1 7.1 110 / 41011.8 7.0 5.8
2017-Dec-02 15:48N 48°25' W 123°23'0 0.0
2017-Dec-02 15:30N 48°25' W 123°23'0 0.0
2017-Dec-02 15:00N 48°25' W 123°23'1261.3
2017-Dec-02 15:00N 48°24' W 123°24'1 2.3 100 / 71012.5 7.0 5.6
2017-Dec-02 14:24N 48°25' W 123°23'0 0.0
2017-Dec-02 14:00N 48°25' W 123°23'1275.8
2017-Dec-02 14:00N 48°24' W 123°24'1 2.8 100 / 61012.7 7.2 5.7
2017-Dec-02 13:30N 48°25' W 123°23'0 0.0
2017-Dec-02 13:00N 48°25' W 123°23'1261.3
2017-Dec-02 13:00N 48°24' W 123°24'1 2.8 100 / 21013.6 7.0 5.9
2017-Dec-02 12:30N 48°25' W 123°23'0 0.0
2017-Dec-02 12:00N 48°25' W 123°23'1275.8
2017-Dec-02 12:00N 48°24' W 123°24'1 2.8 100 / 31013.9 7.1 6.2
2017-Dec-02 11:30N 48°25' W 123°23'0 0.0
2017-Dec-02 11:00N 48°25' W 123°23'1275.8
2017-Dec-02 11:00N 48°24' W 123°24'1 2.3 110 / 41014.5 7.3 6.4
2017-Dec-02 10:24N 48°25' W 123°23'1 3.4
2017-Dec-02 10:00N 48°24' W 123°24'130.6 130 / 31014.7 7.7 6.3
2017-Dec-02 09:57N 48°25' W 123°23'0 0.0
2017-Dec-02 09:30N 48°25' W 123°23'0 0.0
2017-Dec-02 09:00N 48°25' W 123°23'1275.8
2017-Dec-02 09:00N 48°24' W 123°24'1 2.8 150 / 11014.3 7.8 5.9
2017-Dec-02 08:30N 48°25' W 123°23'1 2.7
2017-Dec-02 08:00N 48°24' W 123°24'1 7.1 190 / 61014.5 8.4 6.2
2017-Dec-02 07:48N 48°25' W 123°23'0 0.0
2017-Dec-02 07:30N 48°25' W 123°23'1 2.7
2017-Dec-02 07:00N 48°24' W 123°24'130.6 200 / 71014.2 8.5 6.3
2017-Dec-02 06:57N 48°25' W 123°23'0 0.0
2017-Dec-02 06:30N 48°25' W 123°23'1 2.7
2017-Dec-02 06:00N 48°24' W 123°24'130.6 200 / 91014.2 8.8 6.0
2017-Dec-02 05:57N 48°25' W 123°23'0 0.0
2017-Dec-02 05:30N 48°25' W 123°23'0 0.0
2017-Dec-02 05:00N 48°25' W 123°23'1275.8
2017-Dec-02 05:00N 48°24' W 123°24'1 2.8 190 / 81013.7 8.3 6.3
2017-Dec-02 04:30N 48°25' W 123°23'0 0.0
2017-Dec-02 04:00N 48°25' W 123°23'1292.0
2017-Dec-02 04:00N 48°24' W 123°24'1 2.8 220 / 61013.4 8.1 6.0
2017-Dec-02 03:30N 48°25' W 123°23'0 0.0
2017-Dec-02 03:00N 48°25' W 123°23'1275.8
2017-Dec-02 03:00N 48°24' W 123°24'1 2.8 270 / 11012.8 6.9 5.6
2017-Dec-02 02:30N 48°25' W 123°23'0 0.0
2017-Dec-02 02:00N 48°25' W 123°23'1275.8
2017-Dec-02 02:00N 48°24' W 123°24'1 2.8 340 / 51012.6 6.5 5.6
2017-Dec-02 01:30N 48°25' W 123°23'0 0.0
2017-Dec-02 01:00N 48°25' W 123°23'1275.8
2017-Dec-02 01:00N 48°24' W 123°24'1 2.9 260 / 11012.4 8.0 7.2
2017-Dec-02 00:31N 48°25' W 123°23'3 5.1
2017-Dec-02 00:01N 48°23' W 123°21'2115.7
2017-Dec-02 00:00N 48°24' W 123°24'816.5 070 / 71012.8 8.0 5.9
2017-Dec-01 23:31N 48°26' W 123°12'713.1
2017-Dec-01 23:00N 48°32' W 123°13'2148.1
2017-Dec-01 23:00N 48°30' W 123°12'917.7 110 / 91013.3 7.4 6.5
2017-Dec-01 22:30N 48°38' W 123°15'611.9
2017-Dec-01 22:00N 48°44' W 123°18'2128.8
2017-Dec-01 22:00N 48°42' W 123°18'815.8 130 / 71012.9 7.7 6.3
2017-Dec-01 21:30N 48°50' W 123°21'5 9.3
2017-Dec-01 21:00N 48°54' W 123°18'1 8.1 150 / 61013.9 7.6 5.9
2017-Dec-01 20:55N 48°54' W 123°19'511.8
2017-Dec-01 20:30N 48°58' W 123°23'612.0
2017-Dec-01 20:00N 49°03' W 123°29'3188.0
2017-Dec-01 20:00N 49°06' W 123°30'10 9.9 160 / 201013.7 7.7 6.5
2017-Dec-01 19:00N 49°12' W 123°42'10 9.9 160 / 141014.0 7.1 4.9
2017-Dec-01 18:00N 49°18' W 123°54'362.2 150 / 141013.7 6.8 5.4
2017-Dec-01 17:57N 49°18' W 123°59'612.7
2017-Dec-01 17:26N 49°21' W 124°07'511.7
2017-Dec-01 17:00N 49°24' W 124°14'1101.1
2017-Dec-01 17:00N 49°24' W 124°12'714.1 150 / 131013.4 7.7 4.5
2017-Dec-01 16:30N 49°27' W 124°22'612.4
2017-Dec-01 16:00N 49°30' W 124°30'126.5 130 / 91013.4 7.1 5.2
2017-Dec-01 15:58N 49°30' W 124°29'511.0
2017-Dec-01 15:30N 49°33' W 124°34'611.8
2017-Dec-01 15:00N 49°38' W 124°41'2133.5
2017-Dec-01 15:00N 49°36' W 124°42'713.8 140 / 171012.0 7.8 5.2
2017-Dec-01 14:30N 49°42' W 124°47'611.9
2017-Dec-01 14:00N 49°46' W 124°53'2114.8
2017-Dec-01 14:00N 49°48' W 124°54'4 9.1 220 / 81012.5 6.7 5.4
2017-Dec-01 13:30N 49°51' W 124°60'612.1
2017-Dec-01 13:00N 49°55' W 125°06'172.3
2017-Dec-01 13:00N 49°54' W 125°06'713.8 170 / 101012.9 7.0 5.1
2017-Dec-01 12:31N 49°59' W 125°12'5 9.6
2017-Dec-01 12:00N 50°04' W 125°15'3181.8
2017-Dec-01 12:00N 50°06' W 125°18'3 5.3 160 / 91013.3 6.7 5.1
2017-Dec-01 11:30N 50°08' W 125°21'5 9.5
2017-Dec-01 11:00N 50°12' W 125°22'180.9
2017-Dec-01 11:00N 50°12' W 125°24'4 6.9 160 / 111014.0 7.1 5.9
2017-Dec-01 10:23N 50°16' W 125°24'3 7.8
2017-Dec-01 10:00N 50°19' W 125°25'1160.6
2017-Dec-01 10:00N 50°18' W 125°24'5 9.8 150 / 111013.6 7.2 6.4
2017-Dec-01 09:26N 50°21' W 125°31'4 9.7
2017-Dec-01 09:00N 50°24' W 125°36'313.7 090 / 31013.4 7.3 5.3
2017-Dec-01 08:48N 50°22' W 125°39'3 9.3
2017-Dec-01 08:27N 50°22' W 125°44'714.0
2017-Dec-01 08:00N 50°24' W 125°54'10 9.7 070 / 31013.4 7.0 4.9
2017-Dec-01 07:00N 50°30' W 126°06'7 7.7 080 / 181012.4 7.8 5.6
2017-Dec-01 06:06N 50°29' W 126°17'1 8.9
2017-Dec-01 06:00N 50°29' W 126°18'153.1
2017-Dec-01 06:00N 50°30' W 126°18'8 7.6 120 / 181011.6 6.6 4.8
2017-Dec-01 05:00N 50°30' W 126°30'317.5 200 / 41011.6 7.4 4.5
2017-Dec-01 04:49N 50°30' W 126°35'3 8.6
2017-Dec-01 04:30N 50°31' W 126°39'510.7
2017-Dec-01 04:00N 50°36' W 126°44'1171.3
2017-Dec-01 04:00N 50°36' W 126°42'713.6 090 / 101011.6 7.6 5.4
2017-Dec-01 03:30N 50°40' W 126°51'612.2
2017-Dec-01 03:00N 50°42' W 126°60'42709.2
2017-Dec-01 03:00N 50°42' W 126°54'1019.4 130 / 151011.7 7.5 5.8
2017-Dec-01 02:29N 50°43' W 127°09'612.1
2017-Dec-01 02:00N 50°45' W 127°18'3254.8
2017-Dec-01 02:00N 50°42' W 127°18'   130 / 151012.0 7.4 6.1
Track history (hours):
 
Tides and Currents Weather Stations Pressure Air Temp Water Temp Dewpoint Dewpoint Depression Visibility Wind Speed Wind Dir Waves Ship Positions

Bartlett

Last reported at 2017-Dec-11 01:58 UTC. Time now 2017-Dec-11 02:13 UTC.
Position N 54°20' W 130°17'.

Length 57 m; beam 13.07 m; draft 3.8 m.

Type: SAR. MMSI: 316182000.

Date/timePositionNaut miles runAvg speedWind from/ knotsBaromVisibWave heightAir tempDewpointWater temp
2017-Dec-11 01:58N 54°20' W 130°17'0 0.0
2017-Dec-11 01:28N 54°20' W 130°17'2 4.3
2017-Dec-11 01:00N 54°18' W 130°18'261.7 150 / 91020.2 13.1 7.5
2017-Dec-11 00:58N 54°20' W 130°17'0 0.0
2017-Dec-11 00:28N 54°20' W 130°17'0 0.7
2017-Dec-11 00:01N 54°20' W 130°17'2136.0
2017-Dec-11 00:00N 54°18' W 130°18'2 3.5 120 / 91020.4 14.7 7.0
2017-Dec-10 23:30N 54°18' W 130°21'5 9.7
2017-Dec-10 23:01N 54°14' W 130°21'2144.5
2017-Dec-10 23:00N 54°12' W 130°18'4 9.2 110 / 181021.7 10.6 6.1
2017-Dec-10 22:31N 54°08' W 130°19'612.7
2017-Dec-10 22:00N 54°02' W 130°14'2135.0
2017-Dec-10 22:00N 54°00' W 130°12'4 9.0 140 / 181023.4 11.7 7.1
2017-Dec-10 21:30N 53°56' W 130°14'612.0
2017-Dec-10 21:00N 53°51' W 130°19'3314.9
2017-Dec-10 21:00N 53°48' W 130°18'9 9.3 130 / 151025.3 14.6 7.2
2017-Dec-10 20:00N 53°42' W 130°30'3 9.7 120 / 151023.7 10.4 7.2
2017-Dec-10 19:43N 53°40' W 130°33'211.8
2017-Dec-10 19:30N 53°38' W 130°36'917.5
2017-Dec-10 19:00N 53°30' W 130°42'2 4.6 130 / 201025.0 12.0 7.1
2017-Dec-10 18:39N 53°30' W 130°39'0 0.8
2017-Dec-10 18:22N 53°30' W 130°39'617.0
2017-Dec-10 18:00N 53°36' W 130°42'310.3 090 / 81024.1 9.2 6.7
2017-Dec-10 17:44N 53°36' W 130°38'311.2
2017-Dec-10 17:30N 53°38' W 130°35'4 7.4
2017-Dec-10 17:00N 53°36' W 130°30'0 0.0 100 / 111024.0 8.7 7.3
2017-Dec-10 16:00N 53°36' W 130°30'0 0.0 110 / 111024.4 9.4 7.1
2017-Dec-10 15:00N 53°36' W 130°30'0 0.0 120 / 191023.5 9.3 7.3
2017-Dec-10 14:00N 53°36' W 130°30'0 0.0 110 / 111024.8 8.8 8.2
2017-Dec-10 13:00N 53°36' W 130°30'0 0.0 130 / 131025.3 9.1 8.7
2017-Dec-10 12:00N 53°36' W 130°30'0 0.0 140 / 141026.0 9.0 8.7
2017-Dec-10 11:00N 53°36' W 130°30'0 0.0 150 / 141025.6 9.0 8.7
2017-Dec-10 10:00N 53°36' W 130°30'0 0.0 150 / 151024.1 9.1 8.6
2017-Dec-10 09:00N 53°36' W 130°30'0 0.0 150 / 141023.6 9.2 8.7
2017-Dec-10 08:00N 53°36' W 130°30'0 0.0 120 / 141022.0 8.3 8.2
2017-Dec-10 07:00N 53°36' W 130°30'0 0.0 120 / 111021.8 8.8 8.2
2017-Dec-10 06:00N 53°36' W 130°30'0 0.0 140 / 141020.7 9.1 8.4
2017-Dec-10 05:00N 53°36' W 130°30'0 0.0 140 / 151019.4 8.4 7.9
2017-Dec-10 04:00N 53°36' W 130°30'0 0.0 140 / 131018.3 8.6 7.7
2017-Dec-10 03:00N 53°36' W 130°30'0 0.0 120 / 141018.3 8.7 7.6
2017-Dec-10 01:00N 53°36' W 130°30'0 0.0 140 / 211017.0 9.0 7.5
2017-Dec-10 00:00N 53°36' W 130°30'0 0.0 140 / 241016.5 9.0 7.7
2017-Dec-09 23:00N 53°36' W 130°30'0 0.0 150 / 241016.3 9.1 7.3
2017-Dec-09 22:00N 53°36' W 130°30'0 0.0 140 / 261016.0 8.9 7.4
2017-Dec-09 21:00N 53°36' W 130°30'0 0.0 140 / 241017.1 8.6 7.3
2017-Dec-09 20:00N 53°36' W 130°30'0 0.0 140 / 281016.9 8.6 7.0
2017-Dec-09 19:00N 53°36' W 130°30'0 0.0 140 / 311017.1 9.3 5.9
2017-Dec-09 18:00N 53°36' W 130°30'0 0.0 150 / 271015.8 10.0 5.5
2017-Dec-09 17:00N 53°36' W 130°30'0 0.0 130 / 241015.6 11.1 5.2
2017-Dec-09 16:00N 53°36' W 130°30'311.0 140 / 261014.9 14.1 3.0
2017-Dec-09 15:43N 53°39' W 130°31'5 7.1
2017-Dec-09 15:00N 53°36' W 130°24'0 0.0 100 / 211015.4 11.7 4.8
2017-Dec-09 14:00N 53°36' W 130°24'4 3.6 130 / 261016.8 12.2 3.4
2017-Dec-09 13:00N 53°36' W 130°18'9 9.3 130 / 121018.5 9.8 6.3
2017-Dec-09 12:00N 53°30' W 130°06'7 7.1 140 / 81020.3 8.7 6.2
2017-Dec-09 11:00N 53°30' W 129°54'6 6.0 160 / 121021.3 8.8 5.0
2017-Dec-09 10:00N 53°24' W 129°54'9 9.3 150 / 151021.4 11.9 3.7
2017-Dec-09 09:00N 53°18' W 129°42'7 7.0 140 / 161021.3 11.3 2.1
2017-Dec-09 08:00N 53°12' W 129°36'7 7.0 130 / 71021.4 11.5 1.8
2017-Dec-09 07:00N 53°06' W 129°30'6 6.0 140 / 211020.9 14.5 0.8
2017-Dec-09 06:00N 53°00' W 129°30'7 7.0 140 / 181021.9 12.7 2.5
2017-Dec-09 05:00N 52°54' W 129°24'9 9.4 140 / 171022.4 11.6 3.5
2017-Dec-09 04:00N 52°48' W 129°12'7 7.0 160 / 131023.1 12.2 2.7
2017-Dec-09 03:00N 52°42' W 129°06'7 7.3 140 / 131023.6 11.2 2.5
2017-Dec-09 02:00N 52°42' W 128°54'4 8.3 120 / 101023.2 12.6 0.5
2017-Dec-09 01:33N 52°38' W 128°54'1 7.1
2017-Dec-09 01:28N 52°38' W 128°54'2 4.2
2017-Dec-09 01:00N 52°36' W 128°54'512.0 080 / 61023.1 9.4 2.9
2017-Dec-09 00:36N 52°32' W 128°51'312.4
2017-Dec-09 00:23N 52°29' W 128°51'512.1
2017-Dec-09 00:00N 52°24' W 128°51'2103.3
2017-Dec-09 00:00N 52°24' W 128°48'611.6 110 / 101023.7 8.5 3.4
2017-Dec-08 23:30N 52°18' W 128°49'815.0
2017-Dec-08 23:00N 52°12' W 128°42'2116.2 080 / 111024.7 8.3 4.8
2017-Dec-08 22:58N 52°14' W 128°41'612.7
2017-Dec-08 22:30N 52°15' W 128°32'5 9.2
2017-Dec-08 22:00N 52°16' W 128°24'2679.2
2017-Dec-08 22:00N 52°18' W 128°24'9 9.5 110 / 61025.6 8.9 2.7
2017-Dec-08 21:00N 52°12' W 128°12'319.6 090 / 71026.2 7.5 2.0
2017-Dec-08 20:49N 52°12' W 128°07'3 7.5
2017-Dec-08 20:24N 52°09' W 128°08'3 9.0
2017-Dec-08 20:00N 52°06' W 128°07'156.1
2017-Dec-08 20:00N 52°06' W 128°06'7 8.6 060 / 31026.7 9.8 2.8
2017-Dec-08 19:14N 52°04' W 127°56'311.6
2017-Dec-08 19:00N 52°01' W 127°55'2102.9
2017-Dec-08 19:00N 52°00' W 127°54'510.1 110 / 21027.6 5.7 1.8
2017-Dec-08 18:30N 51°55' W 127°56'612.1
2017-Dec-08 18:00N 51°49' W 127°56'2121.2
2017-Dec-08 18:00N 51°48' W 127°54'510.5 190 / 11027.2 5.4 2.3
2017-Dec-08 17:30N 51°43' W 127°55'612.6
2017-Dec-08 17:00N 51°37' W 127°53'162.4
2017-Dec-08 17:00N 51°36' W 127°54'510.8 020 / 21026.9 4.7 3.5
2017-Dec-08 16:30N 51°31' W 127°51'612.1
2017-Dec-08 16:00N 51°25' W 127°47'2102.8
2017-Dec-08 16:00N 51°24' W 127°48'2 3.0 080 / 161026.9 7.1 4.0
2017-Dec-08 15:21N 51°22' W 127°46'2 5.6
2017-Dec-08 15:00N 51°24' W 127°48'241.2 1027.1 6.2 2.9
2017-Dec-08 14:57N 51°22' W 127°46'0 0.0
2017-Dec-08 14:27N 51°22' W 127°46'2 4.3
2017-Dec-08 14:00N 51°24' W 127°48'240.7 200 / 11027.8 5.3 3.0
2017-Dec-08 13:57N 51°22' W 127°46'0 0.1
2017-Dec-08 13:27N 51°22' W 127°46'2 4.3
2017-Dec-08 13:00N 51°24' W 127°48'0 0.0 220 / 11027.7 4.4 3.0
2017-Dec-08 12:00N 51°24' W 127°48'2 4.4 190 / 11027.9 4.8 2.6
2017-Dec-08 11:33N 51°22' W 127°46'0 0.0
2017-Dec-08 11:27N 51°22' W 127°46'2 4.3
2017-Dec-08 11:00N 51°24' W 127°48'241.3 110 / 11028.1 5.3 2.8
2017-Dec-08 10:57N 51°22' W 127°46'0 0.0
2017-Dec-08 10:27N 51°22' W 127°46'0 0.0
2017-Dec-08 10:00N 51°22' W 127°46'2699.1
2017-Dec-08 10:00N 51°24' W 127°48'2 3.9 050 / 11028.3 5.0 2.4
2017-Dec-08 09:30N 51°22' W 127°46'2 3.9
2017-Dec-08 09:00N 51°24' W 127°48'2 7.9 140 / 11028.7 4.5 2.7
2017-Dec-08 08:45N 51°22' W 127°46'0 0.0
2017-Dec-08 08:21N 51°22' W 127°46'2 5.6
2017-Dec-08 08:00N 51°24' W 127°48'241.5 060 / 21028.2 6.6 3.1
2017-Dec-08 07:57N 51°22' W 127°46'0 0.0
2017-Dec-08 07:27N 51°22' W 127°46'2 4.4
2017-Dec-08 07:00N 51°24' W 127°48'241.3 160 / 21028.6 5.0 3.1
2017-Dec-08 06:57N 51°22' W 127°46'0 0.0
2017-Dec-08 06:21N 51°22' W 127°46'2 5.5
2017-Dec-08 06:00N 51°24' W 127°48'241.1 200 / 21027.9 5.9 3.6
2017-Dec-08 05:57N 51°22' W 127°46'0 0.1
2017-Dec-08 05:27N 51°22' W 127°46'2 4.3
2017-Dec-08 05:00N 51°24' W 127°48'240.8 150 / 11028.1 5.5 3.7
2017-Dec-08 04:57N 51°22' W 127°46'0 0.1
2017-Dec-08 04:27N 51°22' W 127°46'2 4.3
2017-Dec-08 04:00N 51°24' W 127°48'241.0 070 / 31027.5 7.8 3.8
2017-Dec-08 03:57N 51°22' W 127°46'0 0.1
2017-Dec-08 03:27N 51°22' W 127°46'2 4.3
2017-Dec-08 03:00N 51°24' W 127°48'240.7 030 / 11027.9 7.2 3.7
2017-Dec-08 02:57N 51°22' W 127°46'0 0.0
2017-Dec-08 02:30N 51°22' W 127°46'2 3.9
2017-Dec-08 02:00N 51°24' W 127°48'241.2 050 / 91028.1 9.0 4.1
2017-Dec-08 01:57N 51°22' W 127°46'2 3.6
2017-Dec-08 01:31N 51°24' W 127°48'4 7.3
2017-Dec-08 01:00N 51°21' W 127°52'31402.2
2017-Dec-08 01:00N 51°18' W 127°54'3 6.5 060 / 61028.0 8.5 4.7
2017-Dec-08 00:30N 51°15' W 127°52'612.4
2017-Dec-08 00:00N 51°10' W 127°58'3466.3
2017-Dec-08 00:00N 51°12' W 127°54'919.0 140 / 161027.7 10.1 6.0
2017-Dec-07 23:30N 51°05' W 128°03'1223.7
2017-Dec-07 23:00N 50°54' W 128°12'3 8.2 120 / 201026.8 12.6 4.3
2017-Dec-07 22:39N 50°56' W 128°14'213.0
2017-Dec-07 22:30N 50°55' W 128°16'713.4
2017-Dec-07 22:00N 50°50' W 128°22'2129.9
2017-Dec-07 22:00N 50°48' W 128°24'0 0.0 100 / 41027.3 12.0 6.3
2017-Dec-07 21:00N 50°48' W 128°24'1130.2 120 / 61027.8 11.6 4.3
2017-Dec-07 20:59N 50°47' W 128°25'2 4.7
2017-Dec-07 20:30N 50°46' W 128°28'5 9.0
2017-Dec-07 20:00N 50°42' W 128°24'1414.2 110 / 121028.5 9.8 4.6
2017-Dec-07 19:00N 50°30' W 128°12'10 9.7 100 / 51029.3 9.3 4.9
2017-Dec-07 18:00N 50°24' W 128°00'0 0.0 060 / 121030.0 6.8 3.6
2017-Dec-07 17:00N 50°24' W 128°00'0 0.0 020 / 91029.6 6.1 2.5
2017-Dec-07 16:00N 50°24' W 128°00'0 0.0 010 / 81029.6 5.9 2.9
2017-Dec-07 15:00N 50°24' W 128°00'0 0.0 010 / 91029.7 6.3 3.1
2017-Dec-07 14:00N 50°24' W 128°00'0 0.0 040 / 61030.3 7.0 3.3
2017-Dec-07 13:00N 50°24' W 128°00'0 0.0 040 / 81030.6 6.8 3.3
2017-Dec-07 12:00N 50°24' W 128°00'0 0.0 010 / 71031.1 6.9 3.4
2017-Dec-07 11:00N 50°24' W 128°00'0 0.0 010 / 91031.5 6.4 3.6
2017-Dec-07 10:00N 50°24' W 128°00'0 0.0 030 / 61031.7 7.1 3.7
2017-Dec-07 09:00N 50°24' W 128°00'0 0.0 050 / 131031.7 7.4 4.0
2017-Dec-07 08:00N 50°24' W 128°00'0 0.0 020 / 101031.8 6.9 4.0
2017-Dec-07 07:00N 50°24' W 128°00'0 0.0 010 / 81032.8 6.8 4.4
2017-Dec-07 06:00N 50°24' W 128°00'1212.0 030 / 131032.7 7.9 6.1
2017-Dec-07 05:00N 50°12' W 128°00'1312.6 070 / 51032.9 8.6 7.2
2017-Dec-07 04:00N 50°00' W 127°54'1313.0 080 / 111033.4 8.4 7.8
2017-Dec-07 03:00N 49°54' W 127°36'1313.1 070 / 61033.6 8.5 7.4
2017-Dec-07 02:00N 49°48' W 127°18'914.5 090 / 41033.7 8.9 6.4
2017-Dec-07 01:22N 49°41' W 127°10'512.8
2017-Dec-07 01:00N 49°38' W 127°04'2142.0
2017-Dec-07 01:00N 49°36' W 127°06'713.9 050 / 51033.9 8.4 6.9
2017-Dec-07 00:30N 49°34' W 126°56'612.4
2017-Dec-07 00:00N 49°31' W 126°47'195.8
2017-Dec-07 00:00N 49°30' W 126°48'4 7.9 170 / 51034.1 9.7 7.3
2017-Dec-06 23:31N 49°31' W 126°42'3 6.7
2017-Dec-06 23:00N 49°28' W 126°39'3173.4
2017-Dec-06 23:00N 49°30' W 126°42'816.2 150 / 61034.0 10.2 7.2
2017-Dec-06 22:30N 49°23' W 126°37'3 6.4
2017-Dec-06 22:00N 49°22' W 126°33'39627.5
2017-Dec-06 22:00N 49°24' W 126°30'3 5.3 080 / 21034.5 9.7 6.3
2017-Dec-06 21:30N 49°22' W 126°33'0 0.0
2017-Dec-06 21:00N 49°22' W 126°33'33209.2
2017-Dec-06 21:00N 49°24' W 126°30'0 0.0 080 / 11035.2 10.7 6.4
2017-Dec-06 20:00N 49°24' W 126°30'0 0.0 070 / 11035.5 9.4 5.8
2017-Dec-06 19:00N 49°24' W 126°30'0 0.0 080 / 31035.9 9.3 5.8
2017-Dec-06 18:00N 49°24' W 126°30'1414.3 080 / 51035.9 7.9 5.9
2017-Dec-06 17:00N 49°12' W 126°18'1313.2 080 / 61035.7 7.8 6.0
2017-Dec-06 16:00N 49°06' W 126°00'4 1.0 060 / 61035.5 6.7 6.0
2017-Dec-06 12:00N 49°06' W 125°54'0 0.0 040 / 31036.3 5.2 4.9
2017-Dec-06 08:00N 49°06' W 125°54'0 0.0 060 / 11036.8 5.2 4.6
2017-Dec-06 07:00N 49°06' W 125°54'0 0.0 080 / 11036.9 5.5 4.6
2017-Dec-06 06:00N 49°06' W 125°54'0 0.0 040 / 11037.0 6.4 5.2
2017-Dec-06 05:00N 49°06' W 125°54'0 0.0 010 / 31037.0 5.8 5.3
2017-Dec-06 04:00N 49°06' W 125°54'0 0.0 100 / 31037.2 6.3 5.1
2017-Dec-06 03:00N 49°06' W 125°54'6 6.0 100 / 41036.7 6.2 5.2
2017-Dec-06 02:00N 49°00' W 125°54'1313.3 120 / 51036.9 7.3 5.2
2017-Dec-06 01:00N 48°54' W 125°36'10 9.9 090 / 71036.7 6.7 4.3
2017-Dec-06 00:00N 48°48' W 125°24'1313.3 120 / 61036.7 8.0 4.5
2017-Dec-05 23:00N 48°42' W 125°06'0 0.0 130 / 31036.9 7.8 3.8
2017-Dec-05 22:00N 48°42' W 125°06'0 0.0 180 / 21037.2 9.2 4.2
2017-Dec-05 21:00N 48°42' W 125°06'10 9.9 230 / 21037.5 8.3 3.4
2017-Dec-05 20:00N 48°48' W 125°18'4 4.0 040 / 111037.9 7.2 3.3
2017-Dec-05 19:00N 48°48' W 125°12'0 0.0 040 / 91038.1 5.6 3.1
2017-Dec-05 18:00N 48°48' W 125°12'0 0.0 060 / 71038.1 5.6 3.1
2017-Dec-05 17:00N 48°48' W 125°12'0 0.0 050 / 81037.7 4.3 2.2
2017-Dec-05 16:00N 48°48' W 125°12'0 0.0 040 / 91037.4 3.7 1.9
2017-Dec-05 15:00N 48°48' W 125°12'6 6.0 050 / 101037.4 3.8 2.1
2017-Dec-05 14:00N 48°42' W 125°12'8 7.9 050 / 61037.1 5.6 4.2
2017-Dec-05 13:00N 48°42' W 125°00'7 7.2 070 / 131037.2 5.0 3.1
2017-Dec-05 12:00N 48°36' W 124°54'8 7.9 040 / 101037.2 4.4 3.3
2017-Dec-05 11:00N 48°36' W 124°42'7 7.2 060 / 101037.4 5.1 2.9
2017-Dec-05 10:00N 48°30' W 124°36'8 8.0 060 / 161037.3 3.8 2.5
2017-Dec-05 09:00N 48°30' W 124°24'1010.0 060 / 71036.9 6.0 3.7
2017-Dec-05 08:00N 48°24' W 124°12'4 4.0 080 / 61036.9 6.0 3.5
2017-Dec-05 07:00N 48°24' W 124°06'1010.0 050 / 51036.8 6.0 3.3
2017-Dec-05 06:00N 48°18' W 123°54'8 8.0 030 / 71036.9 4.8 2.7
2017-Dec-05 05:00N 48°18' W 123°42'8 8.0 040 / 81036.7 5.5 3.0
2017-Dec-05 04:00N 48°18' W 123°30'7 7.2 010 / 101036.3 5.9 4.0
2017-Dec-05 03:00N 48°24' W 123°24'0 0.0 350 / 61036.2 5.1 3.2
2017-Dec-05 00:00N 48°24' W 123°24'0 0.0 040 / 11036.2 6.1 2.2
2017-Dec-04 18:00N 48°24' W 123°24'0 0.0 360 / 21036.5 3.3 1.5
2017-Dec-04 12:00N 48°24' W 123°24'1 0.9 020 / 51034.0 1.2 0.4
2017-Dec-04 10:25N 48°25' W 123°23'0 0.0
2017-Dec-04 09:58N 48°25' W 123°23'0 0.0
2017-Dec-04 09:28N 48°25' W 123°23'0 0.0
2017-Dec-04 08:58N 48°25' W 123°23'0 0.0
2017-Dec-04 08:28N 48°25' W 123°23'0 0.0
2017-Dec-04 07:58N 48°25' W 123°23'0 0.0
2017-Dec-04 07:28N 48°25' W 123°23'0 0.0
2017-Dec-04 06:58N 48°25' W 123°23'0 0.0
2017-Dec-04 06:28N 48°25' W 123°23'1 2.9
2017-Dec-04 06:00N 48°24' W 123°24'149.1 020 / 31030.5 3.6 2.8
2017-Dec-04 05:58N 48°25' W 123°23'0 0.0
2017-Dec-04 05:28N 48°25' W 123°23'0 0.0
2017-Dec-04 04:58N 48°25' W 123°23'0 0.0
2017-Dec-04 04:28N 48°25' W 123°23'0 0.0
2017-Dec-04 03:55N 48°25' W 123°23'0 0.0
2017-Dec-04 03:30N 48°25' W 123°23'3 6.3
2017-Dec-04 03:00N 48°23' W 123°20'296.6
2017-Dec-04 03:00N 48°24' W 123°18'5 9.4 100 / 51027.6 6.5 2.3
2017-Dec-04 02:30N 48°26' W 123°12'714.8
2017-Dec-04 02:01N 48°34' W 123°13'3157.4
2017-Dec-04 02:00N 48°36' W 123°12'510.8 060 / 71026.8 6.0 2.0
2017-Dec-04 01:30N 48°41' W 123°16'713.2
2017-Dec-04 01:00N 48°46' W 123°20'510.3
2017-Dec-04 00:30N 48°52' W 123°19'713.2
2017-Dec-04 00:00N 48°58' W 123°19'4316.4
2017-Dec-04 00:00N 48°54' W 123°18'1122.1 300 / 141025.0 6.1 1.4
2017-Dec-03 23:30N 49°05' W 123°20'611.6
2017-Dec-03 23:00N 49°08' W 123°12'2107.6
2017-Dec-03 23:00N 49°06' W 123°12'510.2 290 / 91024.1 5.6 0.7
2017-Dec-03 22:30N 49°07' W 123°05'0 0.1
2017-Dec-03 22:00N 49°07' W 123°05'294.7
2017-Dec-03 22:00N 49°06' W 123°06'2 4.0 280 / 41023.5 6.2 2.0
2017-Dec-03 21:29N 49°07' W 123°09'5 9.9
2017-Dec-03 21:00N 49°07' W 123°16'2229.0
2017-Dec-03 21:00N 49°06' W 123°18'3 6.9 310 / 131022.3 5.2 0.9
2017-Dec-03 20:30N 49°03' W 123°18'611.4
2017-Dec-03 20:00N 48°57' W 123°17'3311.3
2017-Dec-03 20:00N 48°54' W 123°18'3 5.2 300 / 191022.4 5.5 1.2
2017-Dec-03 19:31N 48°52' W 123°19'4 8.8
2017-Dec-03 19:00N 48°47' W 123°20'2115.5
2017-Dec-03 19:00N 48°48' W 123°18'611.9 330 / 121021.8 5.9 1.5
2017-Dec-03 18:30N 48°42' W 123°16'611.8
2017-Dec-03 18:00N 48°37' W 123°13'177.5
2017-Dec-03 18:00N 48°36' W 123°12'510.0 320 / 121020.6 5.9 1.6
2017-Dec-03 17:31N 48°31' W 123°11'510.9
2017-Dec-03 17:00N 48°26' W 123°10'2127.3
2017-Dec-03 17:00N 48°24' W 123°12'3 6.5 340 / 171019.4 5.6 1.8
2017-Dec-03 16:30N 48°23' W 123°16'5 9.2
2017-Dec-03 16:00N 48°23' W 123°23'155.8
2017-Dec-03 16:00N 48°24' W 123°24'1 2.6 020 / 91019.0 4.1 1.5
2017-Dec-03 15:28N 48°25' W 123°23'1 2.8
2017-Dec-03 15:00N 48°24' W 123°24'151.3 360 / 51018.2 5.0 1.2
2017-Dec-03 14:58N 48°25' W 123°23'0 0.0
2017-Dec-03 14:28N 48°25' W 123°23'1 2.8
2017-Dec-03 14:00N 48°24' W 123°24'151.5 020 / 61017.4 4.7 1.8
2017-Dec-03 13:58N 48°25' W 123°23'0 0.0
2017-Dec-03 13:28N 48°25' W 123°23'1 2.8
2017-Dec-03 13:00N 48°24' W 123°24'151.5 010 / 51016.6 4.4 2.7
2017-Dec-03 12:58N 48°25' W 123°23'0 0.0
2017-Dec-03 12:28N 48°25' W 123°23'1 2.9
2017-Dec-03 12:00N 48°24' W 123°24'151.3 020 / 61015.7 5.2 3.5
2017-Dec-03 11:58N 48°25' W 123°23'0 0.0
2017-Dec-03 11:28N 48°25' W 123°23'1 2.9
2017-Dec-03 11:00N 48°24' W 123°24'152.0 020 / 41015.0 5.8 3.5
2017-Dec-03 10:58N 48°25' W 123°23'0 0.0
2017-Dec-03 10:28N 48°25' W 123°23'1 2.9
2017-Dec-03 10:00N 48°24' W 123°24'151.5 310 / 41014.2 5.5 3.6
2017-Dec-03 09:58N 48°25' W 123°23'0 0.0
2017-Dec-03 09:28N 48°25' W 123°23'1 2.9
2017-Dec-03 09:00N 48°24' W 123°24'151.0 010 / 61013.5 5.8 3.0
2017-Dec-03 08:58N 48°25' W 123°23'0 0.0
2017-Dec-03 08:28N 48°25' W 123°23'1 2.8
2017-Dec-03 08:00N 48°24' W 123°24'151.1 360 / 81013.0 6.0 3.6
2017-Dec-03 07:58N 48°25' W 123°23'0 0.0
2017-Dec-03 07:28N 48°25' W 123°23'1 2.9
2017-Dec-03 07:00N 48°24' W 123°24'151.5 350 / 71012.7 6.0 4.0
2017-Dec-03 06:58N 48°25' W 123°23'0 0.0
2017-Dec-03 06:28N 48°25' W 123°23'1 2.9
2017-Dec-03 06:00N 48°24' W 123°24'152.0 350 / 101012.2 6.0 4.3
2017-Dec-03 05:58N 48°25' W 123°23'0 0.0
2017-Dec-03 05:28N 48°25' W 123°23'1 2.9
2017-Dec-03 05:00N 48°24' W 123°24'151.1 350 / 101011.5 6.3 4.4
2017-Dec-03 04:58N 48°25' W 123°23'0 0.0
2017-Dec-03 04:28N 48°25' W 123°23'1 2.8
2017-Dec-03 04:00N 48°24' W 123°24'150.7 350 / 61011.1 6.7 5.3
2017-Dec-03 03:58N 48°25' W 123°23'0 0.0
2017-Dec-03 03:28N 48°25' W 123°23'1 2.9
2017-Dec-03 03:00N 48°24' W 123°24'151.5 330 / 21010.7 6.8 5.8
2017-Dec-03 02:58N 48°25' W 123°23'0 0.0
2017-Dec-03 02:28N 48°25' W 123°23'1 2.9
2017-Dec-03 02:00N 48°24' W 123°24'151.6 300 / 31010.4 6.9 5.6
2017-Dec-03 01:58N 48°25' W 123°23'0 0.0
2017-Dec-03 01:28N 48°25' W 123°23'1 2.8
2017-Dec-03 01:00N 48°24' W 123°24'151.5 340 / 21010.0 7.6 5.8
2017-Dec-03 00:58N 48°25' W 123°23'0 0.0
2017-Dec-03 00:28N 48°25' W 123°23'1 2.8
2017-Dec-03 00:00N 48°24' W 123°24'151.1 100 / 11009.9 7.8 5.0
2017-Dec-02 23:58N 48°25' W 123°23'0 0.0
2017-Dec-02 23:28N 48°25' W 123°23'1 2.9
2017-Dec-02 23:00N 48°24' W 123°24'151.1 100 / 11009.6 7.7 5.0
2017-Dec-02 22:58N 48°25' W 123°23'0 0.0
2017-Dec-02 22:28N 48°25' W 123°23'0 0.0
2017-Dec-02 21:58N 48°25' W 123°23'0 0.0
2017-Dec-02 21:28N 48°25' W 123°23'1 2.8
2017-Dec-02 21:00N 48°24' W 123°24'151.1 040 / 11010.3 8.2 6.1
2017-Dec-02 20:58N 48°25' W 123°23'0 0.0
2017-Dec-02 20:28N 48°25' W 123°23'1 2.9
2017-Dec-02 20:00N 48°24' W 123°24'151.5 340 / 11010.6 7.7 6.5
2017-Dec-02 19:58N 48°25' W 123°23'0 0.0
2017-Dec-02 19:28N 48°25' W 123°23'1 2.9
2017-Dec-02 19:00N 48°24' W 123°24'152.0 340 / 41010.9 7.4 6.5
2017-Dec-02 18:58N 48°25' W 123°23'0 0.0
2017-Dec-02 18:28N 48°25' W 123°23'0 0.0
2017-Dec-02 18:01N 48°25' W 123°23'175.6
2017-Dec-02 18:00N 48°24' W 123°24'1 2.8 140 / 21011.4 7.7 6.2
2017-Dec-02 17:30N 48°25' W 123°23'0 0.0
2017-Dec-02 17:00N 48°25' W 123°23'1261.3
2017-Dec-02 17:00N 48°24' W 123°24'1 2.8 130 / 31012.0 7.3 6.0
2017-Dec-02 16:30N 48°25' W 123°23'1 2.7
2017-Dec-02 16:00N 48°24' W 123°24'1 7.1 110 / 41011.8 7.0 5.8
2017-Dec-02 15:48N 48°25' W 123°23'0 0.0
2017-Dec-02 15:30N 48°25' W 123°23'0 0.0
2017-Dec-02 15:00N 48°25' W 123°23'1261.3
2017-Dec-02 15:00N 48°24' W 123°24'1 2.3 100 / 71012.5 7.0 5.6
2017-Dec-02 14:24N 48°25' W 123°23'0 0.0
2017-Dec-02 14:00N 48°25' W 123°23'1275.8
2017-Dec-02 14:00N 48°24' W 123°24'1 2.8 100 / 61012.7 7.2 5.7
2017-Dec-02 13:30N 48°25' W 123°23'0 0.0
2017-Dec-02 13:00N 48°25' W 123°23'1261.3
2017-Dec-02 13:00N 48°24' W 123°24'1 2.8 100 / 21013.6 7.0 5.9
2017-Dec-02 12:30N 48°25' W 123°23'0 0.0
2017-Dec-02 12:00N 48°25' W 123°23'1275.8
2017-Dec-02 12:00N 48°24' W 123°24'1 2.8 100 / 31013.9 7.1 6.2
2017-Dec-02 11:30N 48°25' W 123°23'0 0.0
2017-Dec-02 11:00N 48°25' W 123°23'1275.8
2017-Dec-02 11:00N 48°24' W 123°24'1 2.3 110 / 41014.5 7.3 6.4
2017-Dec-02 10:24N 48°25' W 123°23'1 3.4
2017-Dec-02 10:00N 48°24' W 123°24'130.6 130 / 31014.7 7.7 6.3
2017-Dec-02 09:57N 48°25' W 123°23'0 0.0
2017-Dec-02 09:30N 48°25' W 123°23'0 0.0
2017-Dec-02 09:00N 48°25' W 123°23'1275.8
2017-Dec-02 09:00N 48°24' W 123°24'1 2.8 150 / 11014.3 7.8 5.9
2017-Dec-02 08:30N 48°25' W 123°23'1 2.7
2017-Dec-02 08:00N 48°24' W 123°24'1 7.1 190 / 61014.5 8.4 6.2
2017-Dec-02 07:48N 48°25' W 123°23'0 0.0
2017-Dec-02 07:30N 48°25' W 123°23'1 2.7
2017-Dec-02 07:00N 48°24' W 123°24'130.6 200 / 71014.2 8.5 6.3
2017-Dec-02 06:57N 48°25' W 123°23'0 0.0
2017-Dec-02 06:30N 48°25' W 123°23'1 2.7
2017-Dec-02 06:00N 48°24' W 123°24'130.6 200 / 91014.2 8.8 6.0
2017-Dec-02 05:57N 48°25' W 123°23'0 0.0
2017-Dec-02 05:30N 48°25' W 123°23'0 0.0
2017-Dec-02 05:00N 48°25' W 123°23'1275.8
2017-Dec-02 05:00N 48°24' W 123°24'1 2.8 190 / 81013.7 8.3 6.3
2017-Dec-02 04:30N 48°25' W 123°23'0 0.0
2017-Dec-02 04:00N 48°25' W 123°23'1292.0
2017-Dec-02 04:00N 48°24' W 123°24'1 2.8 220 / 61013.4 8.1 6.0
2017-Dec-02 03:30N 48°25' W 123°23'0 0.0
2017-Dec-02 03:00N 48°25' W 123°23'1275.8
2017-Dec-02 03:00N 48°24' W 123°24'1 2.8 270 / 11012.8 6.9 5.6
2017-Dec-02 02:30N 48°25' W 123°23'0 0.0
2017-Dec-02 02:00N 48°25' W 123°23'1275.8
2017-Dec-02 02:00N 48°24' W 123°24'1 2.8 340 / 51012.6 6.5 5.6
2017-Dec-02 01:30N 48°25' W 123°23'0 0.0
2017-Dec-02 01:00N 48°25' W 123°23'1275.8
2017-Dec-02 01:00N 48°24' W 123°24'1 2.9 260 / 11012.4 8.0 7.2
2017-Dec-02 00:31N 48°25' W 123°23'3 5.1
2017-Dec-02 00:01N 48°23' W 123°21'2115.7
2017-Dec-02 00:00N 48°24' W 123°24'816.5 070 / 71012.8 8.0 5.9
2017-Dec-01 23:31N 48°26' W 123°12'713.1
2017-Dec-01 23:00N 48°32' W 123°13'2148.1
2017-Dec-01 23:00N 48°30' W 123°12'917.7 110 / 91013.3 7.4 6.5
2017-Dec-01 22:30N 48°38' W 123°15'611.9
2017-Dec-01 22:00N 48°44' W 123°18'2128.8
2017-Dec-01 22:00N 48°42' W 123°18'815.8 130 / 71012.9 7.7 6.3
2017-Dec-01 21:30N 48°50' W 123°21'5 9.3
2017-Dec-01 21:00N 48°54' W 123°18'1 8.1 150 / 61013.9 7.6 5.9
2017-Dec-01 20:55N 48°54' W 123°19'511.8
2017-Dec-01 20:30N 48°58' W 123°23'612.0
2017-Dec-01 20:00N 49°03' W 123°29'3188.0
2017-Dec-01 20:00N 49°06' W 123°30'10 9.9 160 / 201013.7 7.7 6.5
2017-Dec-01 19:00N 49°12' W 123°42'10 9.9 160 / 141014.0 7.1 4.9
2017-Dec-01 18:00N 49°18' W 123°54'362.2 150 / 141013.7 6.8 5.4
2017-Dec-01 17:57N 49°18' W 123°59'612.7
2017-Dec-01 17:26N 49°21' W 124°07'511.7
2017-Dec-01 17:00N 49°24' W 124°14'1101.1
2017-Dec-01 17:00N 49°24' W 124°12'714.1 150 / 131013.4 7.7 4.5
2017-Dec-01 16:30N 49°27' W 124°22'612.4
2017-Dec-01 16:00N 49°30' W 124°30'126.5 130 / 91013.4 7.1 5.2
2017-Dec-01 15:58N 49°30' W 124°29'511.0
2017-Dec-01 15:30N 49°33' W 124°34'611.8
2017-Dec-01 15:00N 49°38' W 124°41'2133.5
2017-Dec-01 15:00N 49°36' W 124°42'713.8 140 / 171012.0 7.8 5.2
2017-Dec-01 14:30N 49°42' W 124°47'611.9
2017-Dec-01 14:00N 49°46' W 124°53'2114.8
2017-Dec-01 14:00N 49°48' W 124°54'4 9.1 220 / 81012.5 6.7 5.4
2017-Dec-01 13:30N 49°51' W 124°60'612.1
2017-Dec-01 13:00N 49°55' W 125°06'172.3
2017-Dec-01 13:00N 49°54' W 125°06'713.8 170 / 101012.9 7.0 5.1
2017-Dec-01 12:31N 49°59' W 125°12'5 9.6
2017-Dec-01 12:00N 50°04' W 125°15'3181.8
2017-Dec-01 12:00N 50°06' W 125°18'3 5.3 160 / 91013.3 6.7 5.1
2017-Dec-01 11:30N 50°08' W 125°21'5 9.5
2017-Dec-01 11:00N 50°12' W 125°22'180.9
2017-Dec-01 11:00N 50°12' W 125°24'4 6.9 160 / 111014.0 7.1 5.9
2017-Dec-01 10:23N 50°16' W 125°24'3 7.8
2017-Dec-01 10:00N 50°19' W 125°25'1160.6
2017-Dec-01 10:00N 50°18' W 125°24'5 9.8 150 / 111013.6 7.2 6.4
2017-Dec-01 09:26N 50°21' W 125°31'4 9.7
2017-Dec-01 09:00N 50°24' W 125°36'313.7 090 / 31013.4 7.3 5.3
2017-Dec-01 08:48N 50°22' W 125°39'3 9.3
2017-Dec-01 08:27N 50°22' W 125°44'714.0
2017-Dec-01 08:00N 50°24' W 125°54'10 9.7 070 / 31013.4 7.0 4.9
2017-Dec-01 07:00N 50°30' W 126°06'7 7.7 080 / 181012.4 7.8 5.6
2017-Dec-01 06:06N 50°29' W 126°17'1 8.9
2017-Dec-01 06:00N 50°29' W 126°18'153.1
2017-Dec-01 06:00N 50°30' W 126°18'8 7.6 120 / 181011.6 6.6 4.8
2017-Dec-01 05:00N 50°30' W 126°30'317.5 200 / 41011.6 7.4 4.5
2017-Dec-01 04:49N 50°30' W 126°35'3 8.6
2017-Dec-01 04:30N 50°31' W 126°39'510.7
2017-Dec-01 04:00N 50°36' W 126°44'1171.3
2017-Dec-01 04:00N 50°36' W 126°42'713.6 090 / 101011.6 7.6 5.4
2017-Dec-01 03:30N 50°40' W 126°51'612.2
2017-Dec-01 03:00N 50°42' W 126°60'42709.2
2017-Dec-01 03:00N 50°42' W 126°54'1019.4 130 / 151011.7 7.5 5.8
2017-Dec-01 02:29N 50°43' W 127°09'612.1
2017-Dec-01 02:00N 50°45' W 127°18'3254.8
2017-Dec-01 02:00N 50°42' W 127°18'   130 / 151012.0 7.4 6.1

Dump ship's entire track history